Belle Terre, New York
Current Conditions -  °F | °C
As of 1:56 AM on Monday 22 Dec 2014 (Local Time) from KISP Reporting Station
Overcast Overcast  
Wind Chill: 32°   Ceiling: 800
Heat Index: 37°   Visibility: 10mi
Dew Point: 33°   Wind: 7mph
Humidity: 86%   Direction: 20°NNE
Pressure: 30.3"   Gusts: NA
Location:  40.9503°N, 73.0617°W
Report Text: KISP 220656Z AUTO 02006KT 10SM BKN008 BKN013 OVC039 03/01 A3030 RMK AO2 SLP259 T00280006
Loading
Personal Weather Stations






























Interactive Weather Map New forecast layout! Learn more

10-Day Weather Forecast

Advertisements
Track Severe Weather on mobile